AXI750 LEPA-LOWI
Flight info
| Callsign | AXI750 |
|---|---|
| Flight time | N/A |
| Altitude | 43000 |
| Route | MERO5A MEROS N853 LUMAS DCT UNANA DCT STP Y15 RAPED DCT PIGOS DCT EKSID DCT NOSTA DCT NOPMU DCT ABESI N851 UTAVO DCT ROLSA DCT DEGES N871 MADEB MADE1B |
| Aircraft | C750/M-SBDE3FGHRWXY/S |
Departure
| Time | 2026-05-05 11:49 |
|---|---|
| Airport | Palma de Mallorca Airport (LEPA) |
Arrival
| Time | N/A |
|---|---|
| Airport | Innsbruck Airport (LOWI) |
| Time | Latitude | Longitude | Altitude | Speed | Heading |
|---|---|---|---|---|---|
| 2026-05-05 11:36 | 39.54754 | 2.71970 | 27 ft | 0 kts | 148° |
| 2026-05-05 11:41 | 39.54764 | 2.71961 | 27 ft | 4 kts | 148° |
| 2026-05-05 11:41 | 39.54786 | 2.71943 | 27 ft | 3 kts | 148° |
| 2026-05-05 11:42 | 39.54809 | 2.71919 | 27 ft | 4 kts | 110° |
| 2026-05-05 11:42 | 39.54812 | 2.71900 | 27 ft | 4 kts | 70° |
| 2026-05-05 11:42 | 39.54800 | 2.71872 | 27 ft | 0 kts | 58° |
| 2026-05-05 11:44 | 39.54803 | 2.71878 | 27 ft | 5 kts | 58° |
| 2026-05-05 11:44 | 39.54847 | 2.71971 | 27 ft | 18 kts | 59° |
| 2026-05-05 11:44 | 39.54921 | 2.72047 | 27 ft | 12 kts | 333° |
| 2026-05-05 11:44 | 39.54978 | 2.72066 | 27 ft | 8 kts | 58° |
| 2026-05-05 11:45 | 39.55031 | 2.72180 | 27 ft | 20 kts | 59° |
| 2026-05-05 11:45 | 39.55107 | 2.72339 | 27 ft | 21 kts | 57° |
| 2026-05-05 11:45 | 39.55183 | 2.72502 | 27 ft | 22 kts | 58° |
| 2026-05-05 11:45 | 39.55263 | 2.72670 | 27 ft | 22 kts | 58° |
| 2026-05-05 11:46 | 39.55344 | 2.72842 | 27 ft | 21 kts | 58° |
| 2026-05-05 11:46 | 39.55382 | 2.72920 | 27 ft | 6 kts | 58° |
| 2026-05-05 11:46 | 39.55412 | 2.72951 | 27 ft | 6 kts | 21° |
| 2026-05-05 11:46 | 39.55435 | 2.72922 | 27 ft | 11 kts | 304° |
| 2026-05-05 11:47 | 39.55506 | 2.72792 | 27 ft | 15 kts | 306° |
| 2026-05-05 11:47 | 39.55508 | 2.72744 | 27 ft | 3 kts | 284° |
| 2026-05-05 11:47 | 39.55505 | 2.72732 | 27 ft | 0 kts | 238° |
| 2026-05-05 11:48 | 39.55504 | 2.72732 | 27 ft | 1 kts | 238° |
| 2026-05-05 11:48 | 39.55317 | 2.72336 | 27 ft | 108 kts | 238° |
| 2026-05-05 11:48 | 39.54839 | 2.71322 | 359 ft | 138 kts | 238° |
| 2026-05-05 11:49 | 39.54315 | 2.70236 | 1094 ft | 147 kts | 236° |
| 2026-05-05 11:49 | 39.53733 | 2.69098 | 1744 ft | 159 kts | 234° |
| 2026-05-05 11:49 | 39.53096 | 2.67844 | 2250 ft | 178 kts | 236° |
| 2026-05-05 11:49 | 39.52359 | 2.66399 | 2760 ft | 205 kts | 235° |
| 2026-05-05 11:50 | 39.51564 | 2.64840 | 3686 ft | 207 kts | 235° |
| 2026-05-05 11:50 | 39.50772 | 2.63288 | 4738 ft | 207 kts | 235° |
| 2026-05-05 11:50 | 39.49958 | 2.61721 | 5618 ft | 213 kts | 234° |
| 2026-05-05 11:50 | 39.48739 | 2.60461 | 5988 ft | 242 kts | 210° |
| 2026-05-05 11:51 | 39.47170 | 2.59403 | 6477 ft | 263 kts | 209° |
| 2026-05-05 11:51 | 39.45575 | 2.58264 | 7500 ft | 261 kts | 211° |
| 2026-05-05 11:51 | 39.43976 | 2.57106 | 8528 ft | 265 kts | 210° |
| 2026-05-05 11:51 | 39.42182 | 2.56438 | 9411 ft | 276 kts | 186° |
| 2026-05-05 11:52 | 39.40267 | 2.56783 | 10265 ft | 287 kts | 165° |
| 2026-05-05 11:52 | 39.38498 | 2.58244 | 10381 ft | 325 kts | 137° |
| 2026-05-05 11:52 | 39.37206 | 2.60811 | 10402 ft | 355 kts | 121° |
| 2026-05-05 11:52 | 39.35730 | 2.63371 | 10942 ft | 354 kts | 137° |
| 2026-05-05 11:53 | 39.33979 | 2.65615 | 11696 ft | 356 kts | 139° |
| 2026-05-05 11:53 | 39.32188 | 2.67858 | 12326 ft | 361 kts | 140° |
| 2026-05-05 11:53 | 39.30349 | 2.70102 | 12951 ft | 366 kts | 141° |
| 2026-05-05 11:53 | 39.28494 | 2.72386 | 13591 ft | 371 kts | 140° |
| 2026-05-05 11:54 | 39.26933 | 2.75101 | 14080 ft | 386 kts | 122° |
| 2026-05-05 11:54 | 39.26004 | 2.78384 | 14663 ft | 396 kts | 105° |
| 2026-05-05 11:54 | 39.25792 | 2.81960 | 15212 ft | 404 kts | 93° |
| 2026-05-05 11:54 | 39.25847 | 2.85601 | 15752 ft | 410 kts | 88° |
| 2026-05-05 11:55 | 39.26528 | 2.89205 | 16275 ft | 417 kts | 70° |
| 2026-05-05 11:55 | 39.27848 | 2.92546 | 16878 ft | 420 kts | 59° |
| 2026-05-05 11:55 | 39.29348 | 2.95805 | 17484 ft | 425 kts | 58° |
| 2026-05-05 11:55 | 39.30840 | 2.99072 | 18081 ft | 430 kts | 59° |
| 2026-05-05 11:56 | 39.32339 | 3.02441 | 18632 ft | 436 kts | 59° |
| 2026-05-05 11:56 | 39.33859 | 3.05859 | 19140 ft | 441 kts | 59° |
| 2026-05-05 11:56 | 39.35408 | 3.09295 | 19776 ft | 444 kts | 59° |
| 2026-05-05 11:56 | 39.36972 | 3.12764 | 20317 ft | 450 kts | 59° |
| 2026-05-05 11:57 | 39.38545 | 3.16289 | 20875 ft | 455 kts | 60° |
| 2026-05-05 11:57 | 39.40134 | 3.19856 | 21437 ft | 461 kts | 60° |
| 2026-05-05 11:57 | 39.41747 | 3.23463 | 21983 ft | 466 kts | 60° |
| 2026-05-05 11:57 | 39.43380 | 3.27112 | 22515 ft | 472 kts | 60° |
| 2026-05-05 11:58 | 39.45065 | 3.30783 | 23046 ft | 477 kts | 58° |
| 2026-05-05 11:58 | 39.46799 | 3.34471 | 23568 ft | 482 kts | 58° |
| 2026-05-05 11:58 | 39.48533 | 3.38218 | 24029 ft | 487 kts | 59° |
| 2026-05-05 11:58 | 39.50251 | 3.42004 | 24512 ft | 490 kts | 59° |
| 2026-05-05 11:59 | 39.51990 | 3.45813 | 24987 ft | 493 kts | 59° |
| 2026-05-05 11:59 | 39.53759 | 3.49644 | 25468 ft | 497 kts | 59° |
| 2026-05-05 11:59 | 39.55535 | 3.53505 | 25935 ft | 501 kts | 59° |
| 2026-05-05 11:59 | 39.57312 | 3.57409 | 26396 ft | 504 kts | 59° |
| 2026-05-05 12:00 | 39.59098 | 3.61333 | 26850 ft | 508 kts | 59° |
| 2026-05-05 12:00 | 39.60909 | 3.65293 | 27300 ft | 512 kts | 59° |
| 2026-05-05 12:00 | 39.62729 | 3.69278 | 27758 ft | 515 kts | 59° |
| 2026-05-05 12:00 | 39.64555 | 3.73298 | 28213 ft | 519 kts | 60° |
| 2026-05-05 12:01 | 39.66393 | 3.77349 | 28667 ft | 523 kts | 60° |
| 2026-05-05 12:01 | 39.68245 | 3.81425 | 29117 ft | 526 kts | 60° |
| 2026-05-05 12:01 | 39.70110 | 3.85536 | 29559 ft | 530 kts | 60° |
| 2026-05-05 12:01 | 39.71981 | 3.89673 | 29983 ft | 534 kts | 60° |
| 2026-05-05 12:02 | 39.73866 | 3.93847 | 30359 ft | 537 kts | 60° |
| 2026-05-05 12:02 | 39.75762 | 3.98044 | 30747 ft | 540 kts | 60° |
| 2026-05-05 12:02 | 39.77666 | 4.02265 | 31228 ft | 540 kts | 60° |
| 2026-05-05 12:02 | 39.79556 | 4.06465 | 31854 ft | 537 kts | 60° |
| 2026-05-05 12:03 | 39.81518 | 4.10593 | 32371 ft | 537 kts | 54° |
| 2026-05-05 12:03 | 39.83860 | 4.14281 | 32921 ft | 535 kts | 45° |
| 2026-05-05 12:03 | 39.86590 | 4.17537 | 33524 ft | 530 kts | 36° |
| 2026-05-05 12:03 | 39.89613 | 4.20239 | 34086 ft | 525 kts | 27° |
| 2026-05-05 12:04 | 39.92860 | 4.22349 | 34622 ft | 518 kts | 18° |
| 2026-05-05 12:04 | 39.96241 | 4.23836 | 35199 ft | 509 kts | 8° |
| 2026-05-05 12:04 | 39.99680 | 4.24752 | 35767 ft | 502 kts | 3° |
| 2026-05-05 12:04 | 40.03107 | 4.25551 | 36318 ft | 500 kts | 3° |
| 2026-05-05 12:05 | 40.06527 | 4.26364 | 36858 ft | 498 kts | 3° |
| 2026-05-05 12:05 | 40.09927 | 4.27170 | 37384 ft | 496 kts | 3° |
| 2026-05-05 12:05 | 40.13324 | 4.27964 | 37926 ft | 495 kts | 2° |
| 2026-05-05 12:05 | 40.16707 | 4.28758 | 38485 ft | 493 kts | 2° |
| 2026-05-05 12:06 | 40.20080 | 4.29558 | 38953 ft | 492 kts | 3° |
| 2026-05-05 12:06 | 40.23452 | 4.30357 | 39357 ft | 492 kts | 3° |
| 2026-05-05 12:06 | 40.26815 | 4.31151 | 39779 ft | 491 kts | 3° |
| 2026-05-05 12:06 | 40.30173 | 4.31945 | 40203 ft | 490 kts | 3° |
| 2026-05-05 12:07 | 40.33523 | 4.32740 | 40630 ft | 489 kts | 4° |
| 2026-05-05 12:07 | 40.36869 | 4.33535 | 41060 ft | 488 kts | 4° |
| 2026-05-05 12:07 | 40.40208 | 4.34328 | 41524 ft | 487 kts | 4° |
| 2026-05-05 12:07 | 40.43551 | 4.35121 | 41859 ft | 489 kts | 4° |
| 2026-05-05 12:08 | 40.46896 | 4.35918 | 42254 ft | 489 kts | 5° |
| 2026-05-05 12:08 | 40.50243 | 4.36717 | 42692 ft | 487 kts | 5° |
| 2026-05-05 12:08 | 40.53581 | 4.37514 | 42950 ft | 490 kts | 5° |
| 2026-05-05 12:08 | 40.56966 | 4.38316 | 42942 ft | 499 kts | 5° |
| 2026-05-05 12:09 | 40.63909 | 4.39979 | 42956 ft | 515 kts | 5° |
| 2026-05-05 12:09 | 40.71059 | 4.41692 | 42955 ft | 529 kts | 5° |
| 2026-05-05 12:10 | 40.78352 | 4.43447 | 42952 ft | 536 kts | 5° |
| 2026-05-05 12:10 | 40.85700 | 4.45216 | 42949 ft | 537 kts | 5° |
| 2026-05-05 12:11 | 40.93061 | 4.46994 | 42950 ft | 538 kts | 6° |
| 2026-05-05 12:11 | 41.00423 | 4.48782 | 42945 ft | 538 kts | 6° |
| 2026-05-05 12:12 | 41.07783 | 4.50569 | 42944 ft | 537 kts | 6° |
| 2026-05-05 12:12 | 41.15138 | 4.52361 | 42951 ft | 537 kts | 6° |
| 2026-05-05 12:13 | 41.22493 | 4.54155 | 42949 ft | 537 kts | 6° |
| 2026-05-05 12:13 | 41.29848 | 4.55953 | 42945 ft | 537 kts | 6° |
| 2026-05-05 12:14 | 41.37199 | 4.57756 | 42937 ft | 537 kts | 6° |
| 2026-05-05 12:14 | 41.44540 | 4.59558 | 42939 ft | 536 kts | 6° |
| 2026-05-05 12:15 | 41.51883 | 4.61366 | 42949 ft | 536 kts | 6° |
| 2026-05-05 12:15 | 41.59223 | 4.63178 | 42950 ft | 536 kts | 6° |
| 2026-05-05 12:16 | 41.66514 | 4.64992 | 42953 ft | 537 kts | 7° |
| 2026-05-05 12:16 | 41.73598 | 4.68378 | 42939 ft | 547 kts | 24° |
| 2026-05-05 12:17 | 41.79829 | 4.74414 | 42941 ft | 554 kts | 41° |
| 2026-05-05 12:17 | 41.85055 | 4.81946 | 42960 ft | 556 kts | 47° |
| 2026-05-05 12:18 | 41.90378 | 4.89443 | 42953 ft | 554 kts | 41° |
| 2026-05-05 12:18 | 41.96013 | 4.96490 | 42937 ft | 553 kts | 43° |
| 2026-05-05 12:19 | 42.01362 | 5.03929 | 42954 ft | 553 kts | 43° |
| 2026-05-05 12:19 | 42.06900 | 5.11101 | 42953 ft | 553 kts | 43° |
| 2026-05-05 12:20 | 42.12291 | 5.18456 | 42957 ft | 550 kts | 43° |
| 2026-05-05 12:20 | 42.17745 | 5.25686 | 42958 ft | 550 kts | 43° |
| 2026-05-05 12:21 | 42.23155 | 5.33012 | 42960 ft | 551 kts | 43° |
| 2026-05-05 12:21 | 42.28575 | 5.40294 | 42970 ft | 550 kts | 43° |
| 2026-05-05 12:22 | 42.33980 | 5.47614 | 42958 ft | 550 kts | 43° |
| 2026-05-05 12:22 | 42.39386 | 5.54935 | 42960 ft | 550 kts | 43° |
| 2026-05-05 12:23 | 42.44782 | 5.62270 | 42956 ft | 550 kts | 43° |
| 2026-05-05 12:23 | 42.50181 | 5.69624 | 42955 ft | 550 kts | 44° |
| 2026-05-05 12:24 | 42.55560 | 5.76970 | 42954 ft | 549 kts | 44° |
| 2026-05-05 12:24 | 42.60932 | 5.84331 | 42953 ft | 549 kts | 44° |
| 2026-05-05 12:25 | 42.66302 | 5.91701 | 42956 ft | 549 kts | 44° |
| 2026-05-05 12:25 | 42.71668 | 5.99091 | 42955 ft | 549 kts | 44° |
| 2026-05-05 12:26 | 42.76994 | 6.06440 | 42951 ft | 549 kts | 44° |
| 2026-05-05 12:26 | 42.82344 | 6.13844 | 42955 ft | 548 kts | 44° |
| 2026-05-05 12:27 | 42.87860 | 6.20979 | 42955 ft | 546 kts | 38° |
| 2026-05-05 12:27 | 42.93729 | 6.27551 | 42966 ft | 546 kts | 38° |
| 2026-05-05 12:28 | 42.99504 | 6.34278 | 42969 ft | 546 kts | 38° |
| 2026-05-05 12:28 | 43.05336 | 6.40937 | 42983 ft | 546 kts | 38° |
| 2026-05-05 12:29 | 43.11125 | 6.47653 | 42950 ft | 545 kts | 39° |
| 2026-05-05 12:29 | 43.16916 | 6.54339 | 42944 ft | 544 kts | 38° |
| 2026-05-05 12:30 | 43.21653 | 6.60023 | 42936 ft | 546 kts | 44° |
| 2026-05-05 12:30 | 43.26332 | 6.68229 | 42959 ft | 547 kts | 56° |
| 2026-05-05 12:31 | 43.31393 | 6.78164 | 42968 ft | 546 kts | 52° |
| 2026-05-05 12:31 | 43.35214 | 6.85157 | 42953 ft | 546 kts | 54° |
| 2026-05-05 12:32 | 43.39564 | 6.93685 | 42957 ft | 545 kts | 53° |
| 2026-05-05 12:32 | 43.44054 | 7.02089 | 42966 ft | 544 kts | 54° |
| 2026-05-05 12:33 | 43.48433 | 7.10588 | 42968 ft | 544 kts | 54° |
| 2026-05-05 12:33 | 43.52870 | 7.19036 | 42965 ft | 544 kts | 54° |
| 2026-05-05 12:34 | 43.57260 | 7.27536 | 42960 ft | 544 kts | 54° |
| 2026-05-05 12:34 | 43.61667 | 7.36023 | 42970 ft | 543 kts | 54° |
| 2026-05-05 12:35 | 43.66044 | 7.44515 | 42966 ft | 543 kts | 54° |
| 2026-05-05 12:35 | 43.70425 | 7.53021 | 42960 ft | 543 kts | 54° |
| 2026-05-05 12:36 | 43.74769 | 7.61487 | 42959 ft | 541 kts | 54° |
| 2026-05-05 12:36 | 43.79120 | 7.69993 | 42967 ft | 541 kts | 54° |
| 2026-05-05 12:37 | 43.83977 | 7.77916 | 42948 ft | 540 kts | 41° |
| 2026-05-05 12:37 | 43.89937 | 7.84223 | 42970 ft | 539 kts | 33° |
| 2026-05-05 12:38 | 43.96174 | 7.89971 | 42977 ft | 538 kts | 26° |
| 2026-05-05 12:38 | 44.03115 | 7.93823 | 42973 ft | 536 kts | 15° |
| 2026-05-05 12:39 | 44.10228 | 7.97087 | 42963 ft | 540 kts | 18° |
| 2026-05-05 12:39 | 44.17264 | 8.00840 | 42963 ft | 540 kts | 17° |
| 2026-05-05 12:40 | 44.24365 | 8.04248 | 42976 ft | 540 kts | 18° |
| 2026-05-05 12:40 | 44.31423 | 8.07916 | 42980 ft | 542 kts | 18° |
| 2026-05-05 12:41 | 44.38510 | 8.11429 | 42962 ft | 541 kts | 18° |
| 2026-05-05 12:41 | 44.45578 | 8.15051 | 42979 ft | 541 kts | 18° |
| 2026-05-05 12:42 | 44.52657 | 8.18623 | 42974 ft | 541 kts | 18° |
| 2026-05-05 12:42 | 44.59683 | 8.22214 | 42980 ft | 541 kts | 18° |
| 2026-05-05 12:43 | 44.66755 | 8.25819 | 42988 ft | 541 kts | 18° |
| 2026-05-05 12:43 | 44.73852 | 8.29453 | 42983 ft | 538 kts | 18° |
| 2026-05-05 12:44 | 44.80840 | 8.33040 | 42982 ft | 538 kts | 18° |
| 2026-05-05 12:44 | 44.86983 | 8.36199 | 42982 ft | 538 kts | 18° |
| 2026-05-05 12:45 | 44.93996 | 8.39818 | 42986 ft | 537 kts | 18° |
| 2026-05-05 12:45 | 45.01060 | 8.43469 | 42992 ft | 537 kts | 18° |
| 2026-05-05 12:46 | 45.08062 | 8.47101 | 43002 ft | 536 kts | 18° |
| 2026-05-05 12:46 | 45.15084 | 8.50748 | 43030 ft | 537 kts | 19° |
| 2026-05-05 12:47 | 45.22097 | 8.54406 | 43037 ft | 537 kts | 19° |
| 2026-05-05 12:47 | 45.29214 | 8.58121 | 43053 ft | 540 kts | 18° |
| 2026-05-05 12:48 | 45.36258 | 8.61816 | 43050 ft | 540 kts | 19° |
| 2026-05-05 12:48 | 45.43293 | 8.65509 | 43050 ft | 539 kts | 19° |
| 2026-05-05 12:49 | 45.50395 | 8.69251 | 42998 ft | 540 kts | 19° |
| 2026-05-05 12:49 | 45.57446 | 8.72976 | 42992 ft | 540 kts | 19° |
| 2026-05-05 12:50 | 45.64494 | 8.76709 | 42990 ft | 540 kts | 19° |
| 2026-05-05 12:50 | 45.71554 | 8.80458 | 43005 ft | 541 kts | 19° |
| 2026-05-05 12:51 | 45.78616 | 8.84217 | 43000 ft | 541 kts | 19° |
| 2026-05-05 12:51 | 45.85669 | 8.87983 | 43004 ft | 539 kts | 19° |
| 2026-05-05 12:52 | 45.92707 | 8.91751 | 42997 ft | 540 kts | 19° |
| 2026-05-05 12:52 | 45.99745 | 8.95528 | 42995 ft | 540 kts | 19° |
| 2026-05-05 12:53 | 46.06774 | 8.99313 | 43001 ft | 539 kts | 19° |
| 2026-05-05 12:53 | 46.13833 | 9.02881 | 43007 ft | 536 kts | 12° |
| 2026-05-05 12:54 | 46.21188 | 9.04035 | 43020 ft | 530 kts | 355° |
| 2026-05-05 12:54 | 46.24851 | 9.03594 | 43021 ft | 526 kts | 350° |
| 2026-05-05 12:55 | 46.32093 | 9.02006 | 43018 ft | 527 kts | 349° |
| 2026-05-05 12:55 | 46.39417 | 9.01162 | 43017 ft | 528 kts | 354° |
| 2026-05-05 12:56 | 46.46729 | 9.00167 | 42978 ft | 527 kts | 350° |
| 2026-05-05 12:56 | 46.54035 | 8.99148 | 42997 ft | 528 kts | 353° |
| 2026-05-05 12:57 | 46.61299 | 8.98219 | 42993 ft | 527 kts | 351° |
| 2026-05-05 12:57 | 46.68588 | 8.97180 | 42979 ft | 525 kts | 352° |
| 2026-05-05 12:58 | 46.75882 | 8.96232 | 42951 ft | 527 kts | 352° |
| 2026-05-05 12:58 | 46.83168 | 8.95207 | 42931 ft | 527 kts | 352° |
| 2026-05-05 12:59 | 46.90472 | 8.94234 | 42910 ft | 526 kts | 352° |
| 2026-05-05 12:59 | 46.97767 | 8.93217 | 42902 ft | 526 kts | 352° |
| 2026-05-05 13:00 | 47.05017 | 8.92235 | 42912 ft | 513 kts | 352° |
| 2026-05-05 13:00 | 47.08551 | 8.91744 | 42705 ft | 504 kts | 352° |
| 2026-05-05 13:01 | 47.18812 | 8.90520 | 40218 ft | 478 kts | 358° |
| 2026-05-05 13:01 | 47.22105 | 8.90946 | 39308 ft | 468 kts | 7° |
| 2026-05-05 13:01 | 47.25228 | 8.92116 | 38359 ft | 460 kts | 17° |
| 2026-05-05 13:01 | 47.28140 | 8.93999 | 37230 ft | 454 kts | 28° |
| 2026-05-05 13:02 | 47.30761 | 8.96519 | 36082 ft | 448 kts | 38° |
| 2026-05-05 13:02 | 47.33038 | 8.99615 | 34969 ft | 443 kts | 49° |
| 2026-05-05 13:02 | 47.34930 | 9.03239 | 33829 ft | 459 kts | 59° |
| 2026-05-05 13:02 | 47.36466 | 9.07515 | 32383 ft | 479 kts | 67° |
| 2026-05-05 13:03 | 47.37917 | 9.11895 | 32058 ft | 474 kts | 66° |
| 2026-05-05 13:03 | 47.39537 | 9.16220 | 31414 ft | 483 kts | 63° |
| 2026-05-05 13:03 | 47.40787 | 9.20768 | 30728 ft | 477 kts | 80° |
| 2026-05-05 13:03 | 47.41175 | 9.25604 | 30118 ft | 469 kts | 93° |
| 2026-05-05 13:04 | 47.41200 | 9.30377 | 29478 ft | 462 kts | 94° |
| 2026-05-05 13:04 | 47.41163 | 9.35102 | 28863 ft | 458 kts | 95° |
| 2026-05-05 13:04 | 47.41087 | 9.39775 | 28241 ft | 454 kts | 95° |
| 2026-05-05 13:04 | 47.41038 | 9.44427 | 27643 ft | 452 kts | 95° |
| 2026-05-05 13:05 | 47.41016 | 9.48984 | 27060 ft | 448 kts | 94° |
| 2026-05-05 13:05 | 47.40980 | 9.53558 | 26462 ft | 443 kts | 95° |
| 2026-05-05 13:05 | 47.40923 | 9.58027 | 25890 ft | 439 kts | 95° |
| 2026-05-05 13:05 | 47.40869 | 9.62484 | 25309 ft | 437 kts | 95° |
| 2026-05-05 13:06 | 47.40644 | 9.66930 | 24721 ft | 430 kts | 103° |
| 2026-05-05 13:06 | 47.40085 | 9.71238 | 24188 ft | 426 kts | 105° |
| 2026-05-05 13:06 | 47.39496 | 9.75511 | 23628 ft | 424 kts | 105° |
| 2026-05-05 13:06 | 47.38939 | 9.79781 | 23028 ft | 421 kts | 104° |
| 2026-05-05 13:07 | 47.38408 | 9.84009 | 22467 ft | 418 kts | 104° |
| 2026-05-05 13:07 | 47.37861 | 9.88204 | 21923 ft | 416 kts | 105° |
| 2026-05-05 13:07 | 47.37301 | 9.92376 | 21382 ft | 412 kts | 105° |
| 2026-05-05 13:07 | 47.36752 | 9.96520 | 20831 ft | 411 kts | 104° |
| 2026-05-05 13:08 | 47.36212 | 10.00648 | 20297 ft | 410 kts | 104° |
| 2026-05-05 13:08 | 47.35672 | 10.04752 | 19750 ft | 405 kts | 104° |
| 2026-05-05 13:08 | 47.35129 | 10.08819 | 19223 ft | 403 kts | 104° |